Wetterdaten: Woche 01.06.26 - 07.06.26 (KW23)
Datum Zeit Außen Temp. Server Temp. +20m Feuchte Feuchte +20m Luftdruck Regen Wind Richtung Sonnenschein Helligkeit Solar Taupunkt
01.06.2026 00:00 14,4 °C 23,5 °C 13,5 °C 83 % 87 % 1013,6 hPa 0,00 l/m² 51,3 km/h (7 Bft) S-SW 0,00 h 0 lux 0 W/m² 11,5 °C
01.06.2026 01:00 14,0 °C 23,3 °C 12,9 °C 82 % 90 % 1013,6 hPa 0,22 l/m² 51,3 km/h (7 Bft) S-SW 0,00 h 0 lux 0 W/m² 11,0 °C
01.06.2026 02:00 14,0 °C 23,0 °C 12,7 °C 82 % 92 % 1013,6 hPa 0,00 l/m² 51,3 km/h (7 Bft) S-SW 0,00 h 0 lux 0 W/m² 11,0 °C
01.06.2026 03:00 14,0 °C 23,0 °C 12,6 °C 82 % 93 % 1013,6 hPa 0,00 l/m² 51,3 km/h (7 Bft) S-SW 0,00 h 0 lux 0 W/m² 11,0 °C
01.06.2026 04:00 14,1 °C 22,8 °C 12,3 °C 82 % 93 % 1013,6 hPa 0,00 l/m² 51,3 km/h (7 Bft) S-SW 0,00 h 0 lux 0 W/m² 11,0 °C
01.06.2026 05:00 14,0 °C 22,6 °C 12,1 °C 82 % 94 % 1014,4 hPa 0,00 l/m² 51,3 km/h (7 Bft) S-SW 0,00 h 817 lux 5 W/m² 11,0 °C
01.06.2026 06:00 14,3 °C 22,5 °C 12,3 °C 82 % 95 % 1014,6 hPa 0,00 l/m² 51,3 km/h (7 Bft) S-SW 0,00 h 4,78 klux 31 W/m² 11,3 °C
01.06.2026 07:00 16,3 °C 22,7 °C 15,7 °C 82 % 77 % 1014,4 hPa 0,00 l/m² 51,3 km/h (7 Bft) S-SW 0,00 h 13,5 klux 88 W/m² 13,2 °C
01.06.2026 08:00 20,1 °C 23,3 °C 18,9 °C 69 % 46 % 1014,6 hPa 0,00 l/m² 51,3 km/h (7 Bft) S-SW 1,00 h 48,7 klux 317 W/m² 14,1 °C
01.06.2026 09:00 18,3 °C 23,8 °C 17,3 °C 66 % 48 % 1015,2 hPa 0,00 l/m² 51,3 km/h (7 Bft) S-SW 1,00 h 61,6 klux 401 W/m² 11,7 °C
01.06.2026 10:00 18,0 °C 24,5 °C 17,9 °C 62 % 43 % 1015,3 hPa 0,00 l/m² 51,3 km/h (7 Bft) S-SW 1,00 h 63,8 klux 415 W/m² 10,5 °C
01.06.2026 11:00 19,5 °C 24,8 °C 19,8 °C 60 % 40 % 1015,1 hPa 0,00 l/m² 51,3 km/h (7 Bft) S-SW 1,00 h 84,0 klux 547 W/m² 11,5 °C
01.06.2026 12:00 20,7 °C 24,8 °C 21,1 °C 57 % 39 % 1015,3 hPa 0,00 l/m² 51,3 km/h (7 Bft) S-SW 0,50 h 65,4 klux 426 W/m² 11,9 °C
01.06.2026 13:00 21,0 °C 24,9 °C 22,3 °C 58 % 37 % 1015,2 hPa 0,00 l/m² 51,3 km/h (7 Bft) S-SW 0,25 h 51,0 klux 332 W/m² 12,4 °C
01.06.2026 14:00 21,8 °C 25,1 °C 22,9 °C 56 % 36 % 1015,4 hPa 0,00 l/m² 51,3 km/h (7 Bft) S-SW 0,50 h 65,9 klux 429 W/m² 12,5 °C
01.06.2026 15:00 22,5 °C 25,4 °C 23,8 °C 52 % 34 % 1014,8 hPa 0,00 l/m² 51,3 km/h (7 Bft) S-SW 1,00 h 86,3 klux 562 W/m² 12,2 °C
01.06.2026 16:00 22,9 °C 25,8 °C 24,5 °C 48 % 29 % 1014,8 hPa 0,00 l/m² 51,3 km/h (7 Bft) S-SW 1,00 h 72,2 klux 470 W/m² 11,3 °C
01.06.2026 17:00 23,1 °C 26,1 °C 23,3 °C 43 % 24 % 1013,7 hPa 0,00 l/m² 51,3 km/h (7 Bft) S-SW 1,00 h 60,9 klux 397 W/m² 9,8 °C
01.06.2026 18:00 22,9 °C 26,4 °C 23,4 °C 40 % 15 % 1013,8 hPa 0,00 l/m² 51,3 km/h (7 Bft) S-SW 0,75 h 36,6 klux 239 W/m² 8,5 °C
01.06.2026 19:00 22,7 °C 26,4 °C 23,4 °C 41 % 15 % 1013,8 hPa 0,00 l/m² 51,3 km/h (7 Bft) S-SW 0,25 h 15,7 klux 102 W/m² 8,7 °C
01.06.2026 20:00 20,4 °C 26,1 °C 20,6 °C 52 % 32 % 1014,0 hPa 0,00 l/m² 51,3 km/h (7 Bft) S-SW 0,00 h 5,64 klux 37 W/m² 10,2 °C
01.06.2026 21:00 17,2 °C 25,7 °C 17,1 °C 67 % 48 % 1014,3 hPa 0,00 l/m² 51,3 km/h (7 Bft) S-SW 0,00 h 1,01 klux 14 W/m² 11,0 °C
01.06.2026 22:00 15,6 °C 25,2 °C 15,5 °C 71 % 51 % 1014,5 hPa 0,00 l/m² 51,3 km/h (7 Bft) S-SW 0,00 h 64 lux 0 W/m² 10,3 °C
01.06.2026 23:00 14,5 °C 24,8 °C 14,4 °C 73 % 52 % 1013,8 hPa 0,00 l/m² 51,3 km/h (7 Bft) S-SW 0,00 h 0 lux 0 W/m² 9,7 °C
02.06.2026 00:00 13,7 °C 24,4 °C 13,5 °C 74 % 54 % 1013,7 hPa 0,00 l/m² 51,3 km/h (7 Bft) S-SW 0,00 h 0 lux 0 W/m² 9,2 °C
02.06.2026 01:00 13,6 °C 24,1 °C 13,5 °C 74 % 53 % 1013,7 hPa 0,00 l/m² 51,3 km/h (7 Bft) S-SW 0,00 h 0 lux 0 W/m² 9,0 °C
02.06.2026 02:00 13,4 °C 23,8 °C 13,3 °C 76 % 55 % 1013,2 hPa 0,00 l/m² 51,3 km/h (7 Bft) S-SW 0,00 h 0 lux 0 W/m² 9,2 °C
02.06.2026 03:00 13,1 °C 23,5 °C 13,0 °C 79 % 59 % 1012,7 hPa 0,00 l/m² 51,3 km/h (7 Bft) S-SW 0,00 h 0 lux 0 W/m² 9,5 °C
02.06.2026 04:00 12,9 °C 23,3 °C 13,0 °C 81 % 64 % 1011,9 hPa 0,00 l/m² 51,3 km/h (7 Bft) S-SW 0,00 h 35 lux 0 W/m² 9,7 °C
02.06.2026 05:00 12,9 °C 23,0 °C 13,1 °C 82 % 70 % 1011,7 hPa 0,00 l/m² 51,3 km/h (7 Bft) S-SW 0,00 h 1,26 klux 8 W/m² 9,9 °C
02.06.2026 06:00 14,1 °C 22,8 °C 15,6 °C 81 % 57 % 1010,8 hPa 0,00 l/m² 51,3 km/h (7 Bft) S-SW 0,00 h 9,2 klux 60 W/m² 10,9 °C
02.06.2026 07:00 17,6 °C 23,3 °C 21,2 °C 74 % 39 % 1010,2 hPa 0,00 l/m² 51,3 km/h (7 Bft) S-SW 0,00 h 13,5 klux 88 W/m² 12,9 °C
02.06.2026 08:00 23,6 °C 24,0 °C 25,0 °C 52 % 28 % 1008,8 hPa 0,00 l/m² 51,3 km/h (7 Bft) S-SW 0,50 h 40,3 klux 263 W/m² 13,2 °C
02.06.2026 09:00 22,5 °C 24,8 °C 22,8 °C 55 % 39 % 1008,7 hPa 0,00 l/m² 51,3 km/h (7 Bft) S-SW 0,25 h 49,1 klux 320 W/m² 13,0 °C
02.06.2026 10:00 22,2 °C 25,5 °C 24,0 °C 57 % 36 % 1008,4 hPa 0,00 l/m² 51,3 km/h (7 Bft) S-SW 0,00 h 52,5 klux 342 W/m² 13,3 °C
02.06.2026 11:00 23,4 °C 26,0 °C 25,4 °C 56 % 34 % 1007,5 hPa 0,00 l/m² 51,3 km/h (7 Bft) S-SW 0,00 h 52,7 klux 343 W/m² 14,1 °C
02.06.2026 12:00 24,3 °C 26,4 °C 26,3 °C 52 % 32 % 1007,5 hPa 0,00 l/m² 51,3 km/h (7 Bft) S-SW 0,00 h 57,8 klux 377 W/m² 13,8 °C
02.06.2026 13:00 24,8 °C 26,7 °C 26,5 °C 48 % 24 % 1006,9 hPa 0,00 l/m² 51,3 km/h (7 Bft) S-SW 0,25 h 61,9 klux 403 W/m² 12,9 °C
02.06.2026 14:00 25,1 °C 27,0 °C 27,0 °C 49 % 22 % 1005,6 hPa 0,00 l/m² 51,3 km/h (7 Bft) S-SW 0,25 h 57,0 klux 371 W/m² 13,5 °C
02.06.2026 15:00 25,6 °C 27,3 °C 27,2 °C 49 % 15 % 1004,8 hPa 0,00 l/m² 51,3 km/h (7 Bft) S-SW 0,75 h 82,3 klux 536 W/m² 14,0 °C
02.06.2026 16:00 24,3 °C 27,6 °C 25,0 °C 51 % 20 % 1004,4 hPa 0,00 l/m² 51,3 km/h (7 Bft) S-SW 0,50 h 31,1 klux 203 W/m² 13,4 °C
02.06.2026 17:00 19,1 °C 27,1 °C 20,0 °C 77 % 49 % 1004,9 hPa 3,41 l/m² 51,3 km/h (7 Bft) S-SW 0,25 h 31,9 klux 208 W/m² 14,9 °C
02.06.2026 18:00 20,8 °C 26,8 °C 21,9 °C 74 % 46 % 1003,9 hPa 0,11 l/m² 51,3 km/h (7 Bft) S-SW 0,25 h 20,6 klux 134 W/m² 15,9 °C
02.06.2026 19:00 19,8 °C 26,5 °C 20,2 °C 76 % 50 % 1003,8 hPa 0,00 l/m² 51,3 km/h (7 Bft) S-SW 0,00 h 8,05 klux 52 W/m² 15,5 °C
02.06.2026 20:00 18,9 °C 26,3 °C 19,0 °C 74 % 48 % 1003,9 hPa 0,00 l/m² 51,3 km/h (7 Bft) S-SW 0,00 h 1,36 klux 9 W/m² 14,1 °C
02.06.2026 21:00 17,9 °C 26,0 °C 18,0 °C 76 % 50 % 1003,2 hPa 0,00 l/m² 51,3 km/h (7 Bft) S-SW 0,00 h 351 lux 4 W/m² 13,5 °C
02.06.2026 22:00 17,0 °C 25,6 °C 17,1 °C 78 % 54 % 1004,6 hPa 0,00 l/m² 51,3 km/h (7 Bft) S-SW 0,00 h 36 lux 0 W/m² 13,2 °C
02.06.2026 23:00 15,5 °C 25,3 °C 15,8 °C 82 % 61 % 1005,2 hPa 0,44 l/m² 51,3 km/h (7 Bft) S-SW 0,00 h 0 lux 0 W/m² 12,3 °C
03.06.2026 00:00 14,7 °C 25,0 °C 14,9 °C 83 % 76 % 1005,3 hPa 0,11 l/m² 51,3 km/h (7 Bft) S-SW 0,00 h 0 lux 0 W/m² 11,9 °C
03.06.2026 01:00 14,3 °C 24,7 °C 14,2 °C 83 % 84 % 1005,4 hPa 0,11 l/m² 51,3 km/h (7 Bft) S-SW 0,00 h 0 lux 0 W/m² 11,5 °C
03.06.2026 02:00 14,4 °C 24,5 °C 13,9 °C 83 % 83 % 1005,4 hPa 0,11 l/m² 51,3 km/h (7 Bft) S-SW 0,00 h 0 lux 0 W/m² 11,5 °C
03.06.2026 03:00 14,1 °C 24,2 °C 13,5 °C 83 % 83 % 1005,9 hPa 0,00 l/m² 51,3 km/h (7 Bft) S-SW 0,00 h 0 lux 0 W/m² 11,3 °C
03.06.2026 04:00 14,1 °C 23,8 °C 13,4 °C 83 % 84 % 1006,4 hPa 0,00 l/m² 51,3 km/h (7 Bft) S-SW 0,00 h 0 lux 0 W/m² 11,3 °C
03.06.2026 05:00 14,0 °C 23,6 °C 13,3 °C 83 % 84 % 1006,4 hPa 0,00 l/m² 51,3 km/h (7 Bft) S-SW 0,00 h 662 lux 4 W/m² 11,2 °C
03.06.2026 06:00 14,0 °C 23,1 °C 13,4 °C 83 % 83 % 1006,4 hPa 0,00 l/m² 51,3 km/h (7 Bft) S-SW 0,00 h 5,00 klux 33 W/m² 11,1 °C
03.06.2026 07:00 14,7 °C 23,1 °C 14,8 °C 82 % 64 % 1006,9 hPa 0,00 l/m² 51,3 km/h (7 Bft) S-SW 0,00 h 12,0 klux 78 W/m² 11,7 °C
03.06.2026 08:00 15,0 °C 22,9 °C 15,3 °C 80 % 52 % 1007,3 hPa 0,00 l/m² 51,3 km/h (7 Bft) S-SW 0,00 h 18,2 klux 119 W/m² 11,6 °C
03.06.2026 09:00 15,8 °C 22,8 °C 16,8 °C 75 % 46 % 1008,0 hPa 0,00 l/m² 51,3 km/h (7 Bft) S-SW 0,00 h 27,5 klux 179 W/m² 11,3 °C
03.06.2026 10:00 17,4 °C 22,9 °C 19,0 °C 67 % 41 % 1008,1 hPa 0,00 l/m² 51,3 km/h (7 Bft) S-SW 0,00 h 38,8 klux 253 W/m² 11,2 °C
03.06.2026 11:00 18,0 °C 23,4 °C 19,1 °C 63 % 41 % 1008,1 hPa 0,00 l/m² 51,3 km/h (7 Bft) S-SW 0,50 h 54,8 klux 357 W/m² 10,7 °C
03.06.2026 12:00 18,5 °C 23,5 °C 20,7 °C 62 % 39 % 1008,0 hPa 0,00 l/m² 51,3 km/h (7 Bft) S-SW 0,75 h 98,7 klux 643 W/m² 11,0 °C
03.06.2026 13:00 20,2 °C 24,0 °C 21,6 °C 54 % 35 % 1007,6 hPa 0,00 l/m² 51,3 km/h (7 Bft) S-SW 1,00 h 103 klux 673 W/m² 10,5 °C
03.06.2026 14:00 20,7 °C 24,4 °C 21,9 °C 52 % 35 % 1007,3 hPa 0,00 l/m² 51,3 km/h (7 Bft) S-SW 0,75 h 93,1 klux 606 W/m² 10,4 °C
03.06.2026 15:00 20,3 °C 24,7 °C 22,0 °C 54 % 35 % 1007,6 hPa 0,00 l/m² 51,3 km/h (7 Bft) S-SW 0,50 h 43,3 klux 282 W/m² 10,6 °C
03.06.2026 16:00 19,5 °C 24,7 °C 20,0 °C 61 % 42 % 1007,7 hPa 0,00 l/m² 51,3 km/h (7 Bft) S-SW 0,25 h 48,8 klux 318 W/m² 11,6 °C
03.06.2026 17:00 20,5 °C 24,7 °C 21,4 °C 57 % 39 % 1007,1 hPa 0,00 l/m² 51,3 km/h (7 Bft) S-SW 0,25 h 36,4 klux 237 W/m² 11,7 °C
03.06.2026 18:00 22,7 °C 24,9 °C 24,5 °C 49 % 33 % 1006,6 hPa 0,00 l/m² 51,3 km/h (7 Bft) S-SW 1,00 h 55,7 klux 363 W/m² 11,4 °C
03.06.2026 19:00 21,0 °C 25,0 °C 22,2 °C 51 % 32 % 1006,7 hPa 0,00 l/m² 51,3 km/h (7 Bft) S-SW 0,50 h 18,1 klux 118 W/m² 10,5 °C
03.06.2026 20:00 20,9 °C 24,8 °C 21,3 °C 52 % 39 % 1006,8 hPa 0,00 l/m² 51,3 km/h (7 Bft) S-SW 0,75 h 11,7 klux 76 W/m² 10,6 °C
03.06.2026 21:00 17,0 °C 24,3 °C 17,4 °C 63 % 44 % 1007,7 hPa 0,00 l/m² 51,3 km/h (7 Bft) S-SW 0,25 h 740 lux 7 W/m² 9,9 °C
03.06.2026 22:00 15,6 °C 23,8 °C 15,6 °C 69 % 49 % 1007,3 hPa 0,00 l/m² 51,3 km/h (7 Bft) S-SW 0,00 h 13 lux 0 W/m² 9,9 °C
03.06.2026 23:00 15,3 °C 23,4 °C 15,4 °C 72 % 50 % 1007,3 hPa 0,00 l/m² 51,3 km/h (7 Bft) S-SW 0,00 h 0 lux 0 W/m² 10,2 °C
04.06.2026 00:00 15,0 °C 23,0 °C 15,1 °C 72 % 51 % 1007,1 hPa 0,00 l/m² 51,3 km/h (7 Bft) S-SW 0,00 h 0 lux 0 W/m² 10,1 °C
04.06.2026 01:00 15,2 °C 22,7 °C 15,4 °C 71 % 49 % 1006,3 hPa 0,00 l/m² 51,3 km/h (7 Bft) S-SW 0,00 h 0 lux 0 W/m² 9,9 °C
04.06.2026 02:00 15,3 °C 22,5 °C 15,5 °C 70 % 47 % 1005,5 hPa 0,00 l/m² 51,3 km/h (7 Bft) S-SW 0,00 h 0 lux 0 W/m² 9,9 °C
04.06.2026 03:00 15,4 °C 22,1 °C 15,7 °C 71 % 47 % 1005,2 hPa 0,00 l/m² 51,3 km/h (7 Bft) S-SW 0,00 h 0 lux 0 W/m² 10,1 °C
04.06.2026 04:00 15,7 °C 21,9 °C 15,9 °C 71 % 47 % 1004,4 hPa 0,00 l/m² 51,3 km/h (7 Bft) S-SW 0,00 h 0 lux 0 W/m² 10,4 °C
04.06.2026 05:00 15,7 °C 21,6 °C 16,1 °C 71 % 47 % 1004,2 hPa 0,00 l/m² 51,3 km/h (7 Bft) S-SW 0,00 h 735 lux 5 W/m² 10,5 °C
04.06.2026 06:00 15,6 °C 21,7 °C 16,2 °C 74 % 49 % 1004,2 hPa 0,00 l/m² 51,3 km/h (7 Bft) S-SW 0,00 h 3,01 klux 20 W/m² 11,1 °C
04.06.2026 07:00 15,3 °C 21,7 °C 15,8 °C 80 % 55 % 1004,2 hPa 0,00 l/m² 51,3 km/h (7 Bft) S-SW 0,00 h 6,81 klux 44 W/m² 11,9 °C
04.06.2026 08:00 16,2 °C 21,8 °C 16,8 °C 79 % 52 % 1004,1 hPa 0,00 l/m² 51,3 km/h (7 Bft) S-SW 0,00 h 14,3 klux 93 W/m² 12,5 °C
04.06.2026 09:00 17,1 °C 21,9 °C 18,2 °C 77 % 48 % 1004,0 hPa 0,00 l/m² 51,3 km/h (7 Bft) S-SW 0,00 h 24,8 klux 161 W/m² 13,0 °C
04.06.2026 10:00 18,3 °C 22,3 °C 19,3 °C 71 % 44 % 1003,9 hPa 0,00 l/m² 51,3 km/h (7 Bft) S-SW 0,00 h 22,1 klux 144 W/m² 13,0 °C
04.06.2026 11:00 18,2 °C 22,5 °C 19,1 °C 73 % 46 % 1003,4 hPa 0,00 l/m² 51,3 km/h (7 Bft) S-SW 0,00 h 15,8 klux 103 W/m² 13,3 °C
04.06.2026 12:00 19,0 °C 22,7 °C 20,1 °C 71 % 44 % 1002,8 hPa 0,00 l/m² 51,3 km/h (7 Bft) S-SW 0,00 h 23,3 klux 152 W/m² 13,6 °C
04.06.2026 13:00 18,9 °C 22,8 °C 20,0 °C 70 % 44 % 1002,8 hPa 0,00 l/m² 51,3 km/h (7 Bft) S-SW 0,00 h 34,0 klux 222 W/m² 13,2 °C
04.06.2026 14:00 20,6 °C 23,3 °C 22,0 °C 63 % 39 % 1002,7 hPa 0,00 l/m² 51,3 km/h (7 Bft) S-SW 0,25 h 58,7 klux 382 W/m² 13,2 °C
04.06.2026 15:00 20,8 °C 23,8 °C 22,0 °C 60 % 38 % 1002,1 hPa 0,00 l/m² 51,3 km/h (7 Bft) S-SW 0,00 h 33,5 klux 218 W/m² 12,8 °C
04.06.2026 16:00 20,7 °C 23,9 °C 21,4 °C 59 % 38 % 1001,9 hPa 0,00 l/m² 51,3 km/h (7 Bft) S-SW 0,00 h 32,9 klux 214 W/m² 12,3 °C
04.06.2026 17:00 20,0 °C 24,0 °C 20,6 °C 59 % 39 % 1001,9 hPa 0,00 l/m² 51,3 km/h (7 Bft) S-SW 0,00 h 19,2 klux 125 W/m² 11,7 °C
04.06.2026 18:00 15,8 °C 23,5 °C 15,7 °C 71 % 48 % 1003,4 hPa 0,77 l/m² 51,3 km/h (7 Bft) S-SW 0,00 h 4,53 klux 30 W/m² 10,3 °C
04.06.2026 19:00 14,5 °C 22,9 °C 14,8 °C 81 % 56 % 1004,1 hPa 0,55 l/m² 51,3 km/h (7 Bft) S-SW 0,00 h 4,34 klux 28 W/m² 11,2 °C
04.06.2026 20:00 14,1 °C 22,4 °C 14,3 °C 81 % 58 % 1004,6 hPa 0,33 l/m² 51,3 km/h (7 Bft) S-SW 0,00 h 1,48 klux 10 W/m² 10,9 °C
04.06.2026 21:00 13,8 °C 22,0 °C 14,0 °C 81 % 59 % 1004,9 hPa 0,00 l/m² 51,3 km/h (7 Bft) S-SW 0,00 h 857 lux 5 W/m² 10,6 °C
04.06.2026 22:00 13,6 °C 21,7 °C 13,5 °C 82 % 73 % 1005,4 hPa 0,00 l/m² 51,3 km/h (7 Bft) S-SW 0,00 h 29 lux 0 W/m² 10,6 °C
04.06.2026 23:00 13,2 °C 21,4 °C 12,9 °C 83 % 82 % 1006,0 hPa 0,00 l/m² 51,3 km/h (7 Bft) S-SW 0,00 h 0 lux 0 W/m² 10,4 °C
05.06.2026 00:00 12,2 °C 21,3 °C 11,5 °C 83 % 84 % 1006,6 hPa 0,00 l/m² 51,3 km/h (7 Bft) S-SW 0,00 h 0 lux 0 W/m² 9,4 °C
05.06.2026 01:00 11,5 °C 21,2 °C 10,7 °C 83 % 83 % 1006,9 hPa 0,00 l/m² 51,3 km/h (7 Bft) S-SW 0,00 h 0 lux 0 W/m² 8,7 °C
05.06.2026 02:00 11,0 °C 20,9 °C 10,3 °C 83 % 83 % 1007,8 hPa 0,00 l/m² 51,3 km/h (7 Bft) S-SW 0,00 h 0 lux 0 W/m² 8,2 °C
05.06.2026 03:00 10,3 °C 20,8 °C 9,8 °C 84 % 88 % 1007,8 hPa 0,00 l/m² 51,3 km/h (7 Bft) S-SW 0,00 h 0 lux 0 W/m² 7,8 °C
05.06.2026 04:00 10,2 °C 20,6 °C 9,4 °C 84 % 89 % 1008,6 hPa 0,00 l/m² 51,3 km/h (7 Bft) S-SW 0,00 h 0 lux 0 W/m² 7,5 °C
05.06.2026 05:00 10,2 °C 20,4 °C 9,2 °C 84 % 91 % 1008,9 hPa 0,00 l/m² 51,3 km/h (7 Bft) S-SW 0,00 h 743 lux 5 W/m² 7,6 °C
05.06.2026 06:00 11,0 °C 20,1 °C 10,0 °C 83 % 90 % 1009,6 hPa 0,00 l/m² 51,3 km/h (7 Bft) S-SW 0,00 h 3,66 klux 24 W/m² 8,3 °C
05.06.2026 07:00 12,4 °C 19,9 °C 12,5 °C 83 % 68 % 1010,2 hPa 0,00 l/m² 51,3 km/h (7 Bft) S-SW 0,00 h 8,30 klux 54 W/m² 9,5 °C
05.06.2026 08:00 12,8 °C 19,8 °C 12,9 °C 81 % 57 % 1010,9 hPa 0,00 l/m² 51,3 km/h (7 Bft) S-SW 0,00 h 9,5 klux 62 W/m² 9,6 °C
05.06.2026 09:00 13,8 °C 19,8 °C 14,3 °C 79 % 51 % 1011,3 hPa 0,00 l/m² 51,3 km/h (7 Bft) S-SW 0,00 h 16,2 klux 106 W/m² 10,3 °C
05.06.2026 10:00 14,5 °C 20,0 °C 15,4 °C 75 % 47 % 1012,0 hPa 0,00 l/m² 51,3 km/h (7 Bft) S-SW 0,00 h 14,9 klux 97 W/m² 10,1 °C
05.06.2026 11:00 15,8 °C 20,2 °C 16,9 °C 69 % 45 % 1012,4 hPa 0,00 l/m² 51,3 km/h (7 Bft) S-SW 0,00 h 22,6 klux 147 W/m² 10,1 °C
05.06.2026 12:00 16,0 °C 20,5 °C 17,6 °C 69 % 44 % 1012,4 hPa 0,00 l/m² 51,3 km/h (7 Bft) S-SW 0,00 h 26,4 klux 172 W/m² 10,3 °C
05.06.2026 13:00 17,8 °C 20,8 °C 19,6 °C 65 % 41 % 1012,2 hPa 0,00 l/m² 51,3 km/h (7 Bft) S-SW 0,00 h 55,5 klux 362 W/m² 11,1 °C
05.06.2026 14:00 19,3 °C 21,2 °C 21,2 °C 60 % 37 % 1012,1 hPa 0,00 l/m² 51,3 km/h (7 Bft) S-SW 0,25 h 64,7 klux 421 W/m² 11,2 °C
05.06.2026 15:00 20,2 °C 21,8 °C 22,0 °C 56 % 36 % 1012,0 hPa 0,00 l/m² 51,3 km/h (7 Bft) S-SW 0,75 h 100 klux 651 W/m² 11,0 °C
05.06.2026 16:00 21,0 °C 22,4 °C 22,9 °C 51 % 32 % 1011,9 hPa 0,00 l/m² 51,3 km/h (7 Bft) S-SW 1,00 h 87,0 klux 567 W/m² 10,6 °C
05.06.2026 17:00 20,8 °C 22,9 °C 22,2 °C 51 % 33 % 1012,2 hPa 0,00 l/m² 51,3 km/h (7 Bft) S-SW 0,75 h 54,4 klux 354 W/m² 10,4 °C
05.06.2026 18:00 21,1 °C 23,2 °C 22,0 °C 49 % 33 % 1012,9 hPa 0,00 l/m² 51,3 km/h (7 Bft) S-SW 0,75 h 36,7 klux 239 W/m² 10,0 °C
05.06.2026 19:00 15,6 °C 23,0 °C 15,6 °C 70 % 52 % 1014,5 hPa 0,33 l/m² 51,3 km/h (7 Bft) S-SW 0,00 h 2,87 klux 19 W/m² 9,9 °C
05.06.2026 20:00 14,1 °C 22,4 °C 14,7 °C 82 % 70 % 1014,7 hPa 0,88 l/m² 51,3 km/h (7 Bft) S-SW 0,00 h 6,31 klux 41 W/m² 11,0 °C
05.06.2026 21:00 14,1 °C 22,1 °C 14,5 °C 82 % 67 % 1015,2 hPa 0,00 l/m² 51,3 km/h (7 Bft) S-SW 0,25 h 1,66 klux 15 W/m² 11,2 °C
05.06.2026 22:00 12,8 °C 21,9 °C 12,5 °C 83 % 86 % 1015,8 hPa 0,00 l/m² 51,3 km/h (7 Bft) S-SW 0,00 h 28 lux 0 W/m² 10,0 °C
05.06.2026 23:00 11,8 °C 21,5 °C 11,3 °C 83 % 89 % 1015,9 hPa 0,00 l/m² 51,3 km/h (7 Bft) S-SW 0,00 h 0 lux 0 W/m² 9,0 °C
06.06.2026 00:00 10,7 °C 21,2 °C 10,1 °C 83 % 91 % 1016,0 hPa 0,00 l/m² 51,3 km/h (7 Bft) S-SW 0,00 h 0 lux 0 W/m² 8,0 °C
06.06.2026 01:00 10,2 °C 20,9 °C 9,4 °C 83 % 93 % 1016,1 hPa 0,00 l/m² 51,3 km/h (7 Bft) S-SW 0,00 h 0 lux 0 W/m² 7,4 °C
06.06.2026 02:00 9,8 °C 20,5 °C 8,8 °C 83 % 94 % 1016,1 hPa 0,11 l/m² 51,3 km/h (7 Bft) S-SW 0,00 h 0 lux 0 W/m² 7,1 °C
06.06.2026 03:00 9,6 °C 20,3 °C 8,4 °C 83 % 94 % 1016,4 hPa 0,00 l/m² 51,3 km/h (7 Bft) S-SW 0,00 h 0 lux 0 W/m² 6,9 °C
06.06.2026 04:00 9,4 °C 20,0 °C 8,0 °C 83 % 95 % 1016,4 hPa 0,00 l/m² 51,3 km/h (7 Bft) S-SW 0,00 h 105 lux 0 W/m² 6,7 °C
06.06.2026 05:00 9,0 °C 19,8 °C 8,0 °C 83 % 95 % 1017,3 hPa 0,00 l/m² 51,3 km/h (7 Bft) S-SW 0,00 h 2,69 klux 18 W/m² 6,3 °C
06.06.2026 06:00 9,3 °C 19,8 °C 12,9 °C 83 % 73 % 1017,2 hPa 0,00 l/m² 51,3 km/h (7 Bft) S-SW 0,25 h 15,4 klux 100 W/m² 6,6 °C
06.06.2026 07:00 15,9 °C 20,4 °C 19,8 °C 75 % 39 % 1016,5 hPa 0,00 l/m² 51,3 km/h (7 Bft) S-SW 0,00 h 7,37 klux 48 W/m² 11,2 °C
06.06.2026 08:00 21,1 °C 21,1 °C 21,8 °C 58 % 32 % 1015,5 hPa 0,00 l/m² 51,3 km/h (7 Bft) S-SW 0,75 h 41,9 klux 273 W/m² 12,5 °C
06.06.2026 09:00 20,0 °C 21,7 °C 17,8 °C 60 % 47 % 1015,9 hPa 0,00 l/m² 51,3 km/h (7 Bft) S-SW 1,00 h 52,6 klux 343 W/m² 11,8 °C
06.06.2026 10:00 18,7 °C 22,6 °C 19,8 °C 63 % 43 % 1015,7 hPa 0,00 l/m² 51,3 km/h (7 Bft) S-SW 1,00 h 64,4 klux 420 W/m² 11,5 °C
06.06.2026 11:00 20,3 °C 23,2 °C 21,5 °C 56 % 38 % 1015,1 hPa 0,00 l/m² 51,3 km/h (7 Bft) S-SW 1,00 h 77,6 klux 506 W/m² 11,1 °C
06.06.2026 12:00 21,3 °C 23,5 °C 22,9 °C 51 % 31 % 1014,9 hPa 0,00 l/m² 51,3 km/h (7 Bft) S-SW 1,00 h 82,7 klux 539 W/m² 10,8 °C
06.06.2026 13:00 22,7 °C 23,9 °C 24,8 °C 42 % 17 % 1014,8 hPa 0,00 l/m² 51,3 km/h (7 Bft) S-SW 1,00 h 84,5 klux 550 W/m² 9,2 °C
06.06.2026 14:00 23,6 °C 24,4 °C 25,8 °C 38 % 15 % 1014,0 hPa 0,00 l/m² 51,3 km/h (7 Bft) S-SW 0,75 h 71,7 klux 467 W/m² 8,2 °C
06.06.2026 15:00 23,7 °C 24,8 °C 25,1 °C 37 % 15 % 1013,7 hPa 0,00 l/m² 51,3 km/h (7 Bft) S-SW 0,50 h 54,8 klux 357 W/m² 8,1 °C
06.06.2026 16:00 24,0 °C 25,0 °C 26,1 °C 38 % 15 % 1013,7 hPa 0,00 l/m² 51,3 km/h (7 Bft) S-SW 0,50 h 58,8 klux 383 W/m² 8,7 °C
06.06.2026 17:00 23,8 °C 25,3 °C 25,0 °C 38 % 15 % 1013,7 hPa 0,00 l/m² 51,3 km/h (7 Bft) S-SW 1,00 h 74,2 klux 483 W/m² 8,4 °C
06.06.2026 18:00 24,8 °C 25,8 °C 27,3 °C 39 % 15 % 1012,8 hPa 0,00 l/m² 51,3 km/h (7 Bft) S-SW 1,00 h 50,5 klux 329 W/m² 9,6 °C
06.06.2026 19:00 25,7 °C 26,0 °C 27,8 °C 38 % 15 % 1012,5 hPa 0,00 l/m² 51,3 km/h (7 Bft) S-SW 0,75 h 25,9 klux 169 W/m² 10,2 °C
06.06.2026 20:00 21,0 °C 25,7 °C 21,3 °C 51 % 30 % 1013,9 hPa 0,00 l/m² 51,3 km/h (7 Bft) S-SW 0,00 h 2,42 klux 16 W/m² 10,6 °C
06.06.2026 21:00 19,0 °C 25,2 °C 19,4 °C 61 % 42 % 1014,6 hPa 0,22 l/m² 51,3 km/h (7 Bft) S-SW 0,00 h 129 lux 2 W/m² 11,3 °C
06.06.2026 22:00 16,3 °C 24,7 °C 16,6 °C 74 % 49 % 1015,5 hPa 0,00 l/m² 51,3 km/h (7 Bft) S-SW 0,00 h 0 lux 0 W/m² 11,6 °C
06.06.2026 23:00 15,4 °C 24,4 °C 15,8 °C 80 % 56 % 1016,1 hPa 0,33 l/m² 51,3 km/h (7 Bft) S-SW 0,00 h 0 lux 0 W/m² 12,0 °C
07.06.2026 00:00 14,8 °C 24,1 °C 15,0 °C 82 % 75 % 1015,6 hPa 0,11 l/m² 51,3 km/h (7 Bft) S-SW 0,00 h 0 lux 0 W/m² 11,8 °C
07.06.2026 01:00 14,5 °C 23,8 °C 14,4 °C 83 % 82 % 1015,6 hPa 0,00 l/m² 51,3 km/h (7 Bft) S-SW 0,00 h 0 lux 0 W/m² 11,7 °C
07.06.2026 02:00 14,3 °C 23,6 °C 14,0 °C 83 % 85 % 1015,9 hPa 0,00 l/m² 51,3 km/h (7 Bft) S-SW 0,00 h 0 lux 0 W/m² 11,5 °C
07.06.2026 03:00 14,4 °C 23,4 °C 13,9 °C 82 % 76 % 1016,7 hPa 0,00 l/m² 51,3 km/h (7 Bft) S-SW 0,00 h 0 lux 0 W/m² 11,4 °C
07.06.2026 04:00 13,7 °C 23,1 °C 13,2 °C 82 % 82 % 1017,5 hPa 0,00 l/m² 51,3 km/h (7 Bft) S-SW 0,00 h 62 lux 0 W/m² 10,7 °C
07.06.2026 05:00 13,5 °C 23,0 °C 13,4 °C 83 % 85 % 1017,8 hPa 0,00 l/m² 51,3 km/h (7 Bft) S-SW 0,00 h 1,53 klux 10 W/m² 10,6 °C
07.06.2026 06:00 14,0 °C 22,8 °C 14,6 °C 83 % 72 % 1017,8 hPa 0,11 l/m² 51,3 km/h (7 Bft) S-SW 0,00 h 8,55 klux 56 W/m² 11,2 °C
07.06.2026 07:00 14,7 °C 22,6 °C 15,8 °C 77 % 49 % 1018,7 hPa 0,00 l/m² 51,3 km/h (7 Bft) S-SW 0,00 h 8,84 klux 58 W/m² 10,8 °C
07.06.2026 08:00 15,5 °C 22,3 °C 16,8 °C 70 % 45 % 1018,6 hPa 0,00 l/m² 51,3 km/h (7 Bft) S-SW 0,00 h 23,1 klux 150 W/m² 10,1 °C
07.06.2026 09:00 16,8 °C 22,4 °C 17,9 °C 61 % 40 % 1019,3 hPa 0,00 l/m² 51,3 km/h (7 Bft) S-SW 0,00 h 30,5 klux 199 W/m² 9,1 °C
07.06.2026 10:00 16,2 °C 22,1 °C 17,3 °C 59 % 40 % 1019,6 hPa 0,00 l/m² 51,3 km/h (7 Bft) S-SW 0,00 h 22,4 klux 146 W/m² 8,2 °C
07.06.2026 11:00 17,8 °C 22,1 °C 18,8 °C 57 % 38 % 1019,7 hPa 0,00 l/m² 51,3 km/h (7 Bft) S-SW 0,00 h 32,6 klux 212 W/m² 9,0 °C
07.06.2026 12:00 17,2 °C 22,5 °C 16,9 °C 61 % 45 % 1020,5 hPa 0,00 l/m² 51,3 km/h (7 Bft) S-SW 0,00 h 30,5 klux 198 W/m² 9,7 °C
07.06.2026 13:00 17,0 °C 22,8 °C 17,1 °C 66 % 47 % 1021,6 hPa 0,00 l/m² 51,3 km/h (7 Bft) S-SW 0,00 h 19,6 klux 128 W/m² 10,6 °C
07.06.2026 14:00 16,0 °C 22,7 °C 16,4 °C 76 % 53 % 1021,7 hPa 0,11 l/m² 51,3 km/h (7 Bft) S-SW 0,00 h 36,6 klux 238 W/m² 11,8 °C
07.06.2026 15:00 18,8 °C 23,2 °C 19,9 °C 68 % 44 % 1021,4 hPa 0,00 l/m² 51,3 km/h (7 Bft) S-SW 0,00 h 32,5 klux 212 W/m² 12,6 °C
07.06.2026 16:00 18,4 °C 23,3 °C 19,3 °C 63 % 42 % 1021,4 hPa 0,00 l/m² 51,3 km/h (7 Bft) S-SW 0,25 h 50,7 klux 330 W/m² 11,2 °C
07.06.2026 17:00 20,0 °C 23,5 °C 20,4 °C 58 % 40 % 1021,3 hPa 0,00 l/m² 51,3 km/h (7 Bft) S-SW 1,00 h 65,9 klux 430 W/m² 11,5 °C
07.06.2026 18:00 19,3 °C 23,9 °C 20,2 °C 60 % 41 % 1021,3 hPa 0,00 l/m² 51,3 km/h (7 Bft) S-SW 0,50 h 40,6 klux 265 W/m² 11,4 °C
07.06.2026 19:00 19,1 °C 23,7 °C 19,2 °C 61 % 43 % 1021,3 hPa 0,00 l/m² 51,3 km/h (7 Bft) S-SW 0,25 h 12,5 klux 81 W/m² 11,4 °C
07.06.2026 20:00 18,1 °C 23,5 °C 18,1 °C 64 % 45 % 1021,5 hPa 0,00 l/m² 51,3 km/h (7 Bft) S-SW 0,25 h 10,1 klux 66 W/m² 11,0 °C
07.06.2026 21:00 16,1 °C 23,2 °C 16,4 °C 70 % 49 % 1022,2 hPa 0,00 l/m² 51,3 km/h (7 Bft) S-SW 0,50 h 1,99 klux 25 W/m² 10,5 °C
07.06.2026 22:00 14,3 °C 22,9 °C 14,2 °C 76 % 56 % 1022,9 hPa 0,00 l/m² 51,3 km/h (7 Bft) S-SW 0,00 h 25 lux 0 W/m² 10,0 °C
07.06.2026 23:00 12,7 °C 22,6 °C 12,6 °C 81 % 75 % 1023,0 hPa 0,00 l/m² 51,3 km/h (7 Bft) S-SW 0,00 h 0 lux 0 W/m² 9,5 °C
Min-Datum _ 06.06.26 06.06.26 06.06.26 06.06.26 01.06.26 04.06.26 - 01.06.26 - - - - 06.06.26
_ Min-Zeit 05:30 06:00 05:30 14:45 18:00 16:45 - 00:00 - - - - 05:30
Minimum _ 8,9 °C 19,6 °C 7,5 °C 35 % 15 % 1001,6 hPa - 51,3 km/h (7 Bft) - - - - 6,2 °C
Max-Datum _ 06.06.26 02.06.26 06.06.26 05.06.26 01.06.26 07.06.26 02.06.26 01.06.26 - 01.06.26 05.06.26 05.06.26 02.06.26
_ Max-Zeit 19:30 16:00 18:45 03:00 06:00 23:45 17:00 00:00 - 08:00 15:15 15:15 18:00
Maximum _ 27,8 °C 27,6 °C 30,6 °C 84 % 95 % 1023,1 hPa 3,41 l/m² 51,3 km/h
S-SW (7 Bft)
- 0,25 h 111 klux 723 W/m² 16,4 °C
Durchschnitt _ 17,1 °C 23,3 °C 17,5 °C 69 % 53 % 1011,4 hPa #8,36 l/m² 51,3 km/h (7 Bft) S-SW #36:00 h 23,7 klux 218 W/m² 10,9 °C